sensor_id;sensor_type;location;lat;lon;timestamp;temperature;humidity
65536;DHT22;52145;49.342;9.116;2023-04-03T07:03:15;4.90;99.90
65536;DHT22;52145;49.342;9.116;2023-04-03T07:14:59;5.20;99.90
65536;DHT22;52145;49.342;9.116;2023-04-03T07:20:05;5.40;99.90
65536;DHT22;52145;49.342;9.116;2023-04-03T07:32:25;5.70;99.90
65536;DHT22;52145;49.342;9.116;2023-04-03T07:42:23;6.10;99.90
65536;DHT22;52145;49.342;9.116;2023-04-03T07:49:57;6.20;99.90
65536;DHT22;52145;49.342;9.116;2023-04-03T08:06:03;6.30;99.90
65536;DHT22;52145;49.342;9.116;2023-04-03T08:18:29;6.40;99.90
65536;DHT22;52145;49.342;9.116;2023-04-03T08:26:06;6.70;99.90
65536;DHT22;52145;49.342;9.116;2023-04-03T08:30:56;7.00;99.90
65536;DHT22;52145;49.342;9.116;2023-04-03T08:35:51;7.00;99.90
65536;DHT22;52145;49.342;9.116;2023-04-03T08:40:42;7.10;99.90
65536;DHT22;52145;49.342;9.116;2023-04-03T08:50:41;7.30;99.90
65536;DHT22;52145;49.342;9.116;2023-04-03T09:08:37;7.80;99.90
65536;DHT22;52145;49.342;9.116;2023-04-03T09:16:36;8.30;99.90
65536;DHT22;52145;49.342;9.116;2023-04-03T09:21:36;8.40;99.90
65536;DHT22;52145;49.342;9.116;2023-04-03T09:27:46;8.00;99.90
65536;DHT22;52145;49.342;9.116;2023-04-03T09:30:18;8.00;99.90
65536;DHT22;52145;49.342;9.116;2023-04-03T09:32:46;8.30;99.90
65536;DHT22;52145;49.342;9.116;2023-04-03T09:37:49;8.60;99.90
65536;DHT22;52145;49.342;9.116;2023-04-03T09:42:53;8.80;99.40
65536;DHT22;52145;49.342;9.116;2023-04-03T09:47:49;9.10;99.90
65536;DHT22;52145;49.342;9.116;2023-04-03T09:50:28;9.10;98.90
65536;DHT22;52145;49.342;9.116;2023-04-03T09:52:54;8.80;99.60
65536;DHT22;52145;49.342;9.116;2023-04-03T09:55:21;8.60;99.40
65536;DHT22;52145;49.342;9.116;2023-04-03T09:57:53;8.70;99.00
65536;DHT22;52145;49.342;9.116;2023-04-03T10:00:22;8.90;99.20
65536;DHT22;52145;49.342;9.116;2023-04-03T10:02:54;9.40;99.90
65536;DHT22;52145;49.342;9.116;2023-04-03T10:05:39;10.00;98.80
65536;DHT22;52145;49.342;9.116;2023-04-03T10:10:47;10.90;98.10
65536;DHT22;52145;49.342;9.116;2023-04-03T10:13:16;10.70;98.00
65536;DHT22;52145;49.342;9.116;2023-04-03T10:15:51;10.50;97.40
65536;DHT22;52145;49.342;9.116;2023-04-03T10:18:44;10.40;97.10
65536;DHT22;52145;49.342;9.116;2023-04-03T10:24:19;10.60;97.40
65536;DHT22;52145;49.342;9.116;2023-04-03T10:34:43;10.60;96.00
65536;DHT22;52145;49.342;9.116;2023-04-03T10:37:21;10.60;97.10
65536;DHT22;52145;49.342;9.116;2023-04-03T10:40:23;10.60;97.10
65536;DHT22;52145;49.342;9.116;2023-04-03T10:45:52;9.70;97.40
65536;DHT22;52145;49.342;9.116;2023-04-03T10:48:49;9.50;97.30
65536;DHT22;52145;49.342;9.116;2023-04-03T10:56:44;8.90;98.70
65536;DHT22;52145;49.342;9.116;2023-04-03T10:59:32;9.00;97.70
65536;DHT22;52145;49.342;9.116;2023-04-03T11:02:26;9.20;97.90
65536;DHT22;52145;49.342;9.116;2023-04-03T11:04:56;9.40;97.70
65536;DHT22;52145;49.342;9.116;2023-04-03T11:07:32;9.80;98.20
65536;DHT22;52145;49.342;9.116;2023-04-03T11:10:03;10.20;97.70
65536;DHT22;52145;49.342;9.116;2023-04-03T11:12:41;10.30;97.40
65536;DHT22;52145;49.342;9.116;2023-04-03T11:15:14;10.50;97.00
65536;DHT22;52145;49.342;9.116;2023-04-03T11:17:46;10.40;96.20
65536;DHT22;52145;49.342;9.116;2023-04-03T11:20:20;10.10;96.20
65536;DHT22;52145;49.342;9.116;2023-04-03T11:25:38;9.80;96.30
65536;DHT22;52145;49.342;9.116;2023-04-03T11:28:09;10.20;97.30
65536;DHT22;52145;49.342;9.116;2023-04-03T11:31:01;11.10;95.40
65536;DHT22;52145;49.342;9.116;2023-04-03T11:36:03;14.00;92.60
65536;DHT22;52145;49.342;9.116;2023-04-03T11:38:33;14.30;90.00
65536;DHT22;52145;49.342;9.116;2023-04-03T11:41:02;13.50;90.90
65536;DHT22;52145;49.342;9.116;2023-04-03T11:43:32;12.90;91.40
65536;DHT22;52145;49.342;9.116;2023-04-03T11:46:04;12.70;90.10
65536;DHT22;52145;49.342;9.116;2023-04-03T11:50:59;14.70;83.60
65536;DHT22;52145;49.342;9.116;2023-04-03T11:53:31;14.10;87.80
65536;DHT22;52145;49.342;9.116;2023-04-03T11:56:02;13.20;90.20
65536;DHT22;52145;49.342;9.116;2023-04-03T11:58:32;12.80;90.40
65536;DHT22;52145;49.342;9.116;2023-04-03T12:01:04;12.60;92.20
65536;DHT22;52145;49.342;9.116;2023-04-03T12:03:56;13.20;91.70
65536;DHT22;52145;49.342;9.116;2023-04-03T12:08:52;14.40;87.50
65536;DHT22;52145;49.342;9.116;2023-04-03T12:11:32;13.50;88.90
65536;DHT22;52145;49.342;9.116;2023-04-03T12:16:27;12.00;90.60
65536;DHT22;52145;49.342;9.116;2023-04-03T12:35:28;9.70;91.90
65536;DHT22;52145;49.342;9.116;2023-04-03T12:38:17;9.80;92.10
65536;DHT22;52145;49.342;9.116;2023-04-03T12:40:58;10.00;91.50
65536;DHT22;52145;49.342;9.116;2023-04-03T12:46:15;11.60;90.20
65536;DHT22;52145;49.342;9.116;2023-04-03T12:51:15;11.80;88.40
65536;DHT22;52145;49.342;9.116;2023-04-03T12:53:44;11.20;90.50
65536;DHT22;52145;49.342;9.116;2023-04-03T12:58:56;10.10;90.50
65536;DHT22;52145;49.342;9.116;2023-04-03T13:01:37;10.20;91.70
65536;DHT22;52145;49.342;9.116;2023-04-03T13:04:03;11.00;90.20
65536;DHT22;52145;49.342;9.116;2023-04-03T13:06:38;13.40;90.70
65536;DHT22;52145;49.342;9.116;2023-04-03T13:09:04;15.60;84.50
65536;DHT22;52145;49.342;9.116;2023-04-03T13:11:49;15.10;81.90
65536;DHT22;52145;49.342;9.116;2023-04-03T13:15:15;13.10;84.00
65536;DHT22;52145;49.342;9.116;2023-04-03T13:17:42;13.30;85.90
65536;DHT22;52145;49.342;9.116;2023-04-03T13:23:01;13.20;87.40
65536;DHT22;52145;49.342;9.116;2023-04-03T13:25:31;13.00;84.20
65536;DHT22;52145;49.342;9.116;2023-04-03T13:27:58;11.70;84.70
65536;DHT22;52145;49.342;9.116;2023-04-03T13:30:30;12.30;87.40
65536;DHT22;52145;49.342;9.116;2023-04-03T13:32:59;14.30;83.80
65536;DHT22;52145;49.342;9.116;2023-04-03T13:35:37;13.40;84.40
65536;DHT22;52145;49.342;9.116;2023-04-03T13:38:26;14.10;82.40
65536;DHT22;52145;49.342;9.116;2023-04-03T13:43:19;12.50;83.30
65536;DHT22;52145;49.342;9.116;2023-04-03T13:46:20;13.70;84.00
65536;DHT22;52145;49.342;9.116;2023-04-03T13:48:49;15.80;79.60
65536;DHT22;52145;49.342;9.116;2023-04-03T13:51:26;16.40;76.70
65536;DHT22;52145;49.342;9.116;2023-04-03T13:56:24;18.00;71.80
65536;DHT22;52145;49.342;9.116;2023-04-03T13:59:21;18.90;70.50
65536;DHT22;52145;49.342;9.116;2023-04-03T14:01:52;19.70;70.80
65536;DHT22;52145;49.342;9.116;2023-04-03T14:04:24;19.00;67.80
65536;DHT22;52145;49.342;9.116;2023-04-03T14:06:51;18.80;67.10
65536;DHT22;52145;49.342;9.116;2023-04-03T14:09:18;18.70;69.50
65536;DHT22;52145;49.342;9.116;2023-04-03T14:11:45;19.40;68.50
65536;DHT22;52145;49.342;9.116;2023-04-03T14:14:28;20.20;66.90
65536;DHT22;52145;49.342;9.116;2023-04-03T14:16:59;20.50;65.50
65536;DHT22;52145;49.342;9.116;2023-04-03T14:21:49;20.40;65.00
65536;DHT22;52145;49.342;9.116;2023-04-03T14:24:16;20.40;65.30
65536;DHT22;52145;49.342;9.116;2023-04-03T14:28:22;18.20;67.20
65536;DHT22;52145;49.342;9.116;2023-04-03T14:30:51;17.30;68.50
65536;DHT22;52145;49.342;9.116;2023-04-03T14:33:19;16.10;70.60
65536;DHT22;52145;49.342;9.116;2023-04-03T14:35:46;16.90;71.10
65536;DHT22;52145;49.342;9.116;2023-04-03T14:40:45;20.10;65.80
65536;DHT22;52145;49.342;9.116;2023-04-03T14:43:12;20.80;63.30
65536;DHT22;52145;49.342;9.116;2023-04-03T14:45:38;20.00;64.60
65536;DHT22;52145;49.342;9.116;2023-04-03T14:48:04;20.20;64.40
65536;DHT22;52145;49.342;9.116;2023-04-03T14:50:31;19.60;65.40
65536;DHT22;52145;49.342;9.116;2023-04-03T14:52:58;18.00;67.00
65536;DHT22;52145;49.342;9.116;2023-04-03T14:55:25;17.80;67.40
65536;DHT22;52145;49.342;9.116;2023-04-03T14:58:40;17.20;67.50
65536;DHT22;52145;49.342;9.116;2023-04-03T15:01:06;16.70;69.00
65536;DHT22;52145;49.342;9.116;2023-04-03T15:03:31;17.60;67.60
65536;DHT22;52145;49.342;9.116;2023-04-03T15:05:57;18.90;64.90
65536;DHT22;52145;49.342;9.116;2023-04-03T15:08:26;19.00;64.30
65536;DHT22;52145;49.342;9.116;2023-04-03T15:10:55;20.10;63.50
65536;DHT22;52145;49.342;9.116;2023-04-03T15:13:21;20.80;61.90
65536;DHT22;52145;49.342;9.116;2023-04-03T15:15:47;20.80;61.10
65536;DHT22;52145;49.342;9.116;2023-04-03T15:18:20;20.60;61.60
65536;DHT22;52145;49.342;9.116;2023-04-03T15:20:47;20.70;62.20
65536;DHT22;52145;49.342;9.116;2023-04-03T15:23:14;20.80;60.40
65536;DHT22;52145;49.342;9.116;2023-04-03T15:25:45;21.20;61.50
65536;DHT22;52145;49.342;9.116;2023-04-03T15:28:19;21.20;59.90
65536;DHT22;52145;49.342;9.116;2023-04-03T15:30:47;20.80;60.90
65536;DHT22;52145;49.342;9.116;2023-04-03T15:33:13;19.70;63.30
65536;DHT22;52145;49.342;9.116;2023-04-03T15:35:41;20.60;61.70
65536;DHT22;52145;49.342;9.116;2023-04-03T15:38:07;19.90;61.30
65536;DHT22;52145;49.342;9.116;2023-04-03T15:40:32;18.80;61.60
65536;DHT22;52145;49.342;9.116;2023-04-03T15:42:58;18.90;62.20
65536;DHT22;52145;49.342;9.116;2023-04-03T15:45:23;19.20;61.30
65536;DHT22;52145;49.342;9.116;2023-04-03T15:47:49;18.20;61.80
65536;DHT22;52145;49.342;9.116;2023-04-03T15:50:16;19.00;61.00
65536;DHT22;52145;49.342;9.116;2023-04-03T15:52:41;19.30;61.20
65536;DHT22;52145;49.342;9.116;2023-04-03T15:55:07;19.00;61.30
65536;DHT22;52145;49.342;9.116;2023-04-03T15:57:32;19.60;60.20
65536;DHT22;52145;49.342;9.116;2023-04-03T15:59:59;18.90;60.60
65536;DHT22;52145;49.342;9.116;2023-04-03T16:02:25;19.20;60.40
65536;DHT22;52145;49.342;9.116;2023-04-03T16:04:54;19.60;60.50
65536;DHT22;52145;49.342;9.116;2023-04-03T16:07:20;19.70;60.30
65536;DHT22;52145;49.342;9.116;2023-04-03T16:09:45;16.60;63.80
65536;DHT22;52145;49.342;9.116;2023-04-03T16:12:11;16.30;65.40
65536;DHT22;52145;49.342;9.116;2023-04-03T16:14:36;16.90;63.40
65536;DHT22;52145;49.342;9.116;2023-04-03T16:17:02;17.60;63.20
65536;DHT22;52145;49.342;9.116;2023-04-03T16:19:29;18.10;62.20
65536;DHT22;52145;49.342;9.116;2023-04-03T16:21:55;18.30;62.40
65536;DHT22;52145;49.342;9.116;2023-04-03T16:24:21;17.90;61.60
65536;DHT22;52145;49.342;9.116;2023-04-03T16:26:47;17.30;62.00
65536;DHT22;52145;49.342;9.116;2023-04-03T16:29:12;16.70;63.40
65536;DHT22;52145;49.342;9.116;2023-04-03T16:31:38;16.40;63.30
65536;DHT22;52145;49.342;9.116;2023-04-03T16:34:04;14.70;67.10
65536;DHT22;52145;49.342;9.116;2023-04-03T16:36:29;13.50;68.40
65536;DHT22;52145;49.342;9.116;2023-04-03T16:38:55;11.90;71.20
65536;DHT22;52145;49.342;9.116;2023-04-03T16:41:20;11.00;72.00
65536;DHT22;52145;49.342;9.116;2023-04-03T16:43:46;10.50;74.20
65536;DHT22;52145;49.342;9.116;2023-04-03T16:46:11;10.00;74.90
65536;DHT22;52145;49.342;9.116;2023-04-03T16:48:37;9.50;75.70
65536;DHT22;52145;49.342;9.116;2023-04-03T16:51:02;9.40;78.10
65536;DHT22;52145;49.342;9.116;2023-04-03T16:53:28;9.10;77.50
65536;DHT22;52145;49.342;9.116;2023-04-03T16:55:54;9.00;78.20
65536;DHT22;52145;49.342;9.116;2023-04-03T16:58:20;8.90;78.90
65536;DHT22;52145;49.342;9.116;2023-04-03T17:00:45;8.90;79.50
65536;DHT22;52145;49.342;9.116;2023-04-03T17:03:12;8.70;79.50
65536;DHT22;52145;49.342;9.116;2023-04-03T17:05:38;8.50;79.40
65536;DHT22;52145;49.342;9.116;2023-04-03T17:08:03;8.40;78.70
65536;DHT22;52145;49.342;9.116;2023-04-03T17:10:29;8.30;79.50
65536;DHT22;52145;49.342;9.116;2023-04-03T17:12:55;8.20;80.30
65536;DHT22;52145;49.342;9.116;2023-04-03T17:15:21;8.20;81.10
65536;DHT22;52145;49.342;9.116;2023-04-03T17:17:47;8.10;82.40
65536;DHT22;52145;49.342;9.116;2023-04-03T17:20:14;8.10;82.50
65536;DHT22;52145;49.342;9.116;2023-04-03T17:22:39;8.00;83.60
65536;DHT22;52145;49.342;9.116;2023-04-03T17:25:05;7.90;82.50
65536;DHT22;52145;49.342;9.116;2023-04-03T17:27:31;8.00;83.50
65536;DHT22;52145;49.342;9.116;2023-04-03T17:29:57;7.90;83.90
65536;DHT22;52145;49.342;9.116;2023-04-03T17:32:24;7.80;84.00
65536;DHT22;52145;49.342;9.116;2023-04-03T17:34:50;7.70;84.10
65536;DHT22;52145;49.342;9.116;2023-04-03T17:37:16;7.60;84.00
65536;DHT22;52145;49.342;9.116;2023-04-03T17:39:42;7.50;84.00
65536;DHT22;52145;49.342;9.116;2023-04-03T17:42:07;7.40;85.30
65536;DHT22;52145;49.342;9.116;2023-04-03T17:44:33;7.40;85.30
65536;DHT22;52145;49.342;9.116;2023-04-03T17:46:58;7.30;86.80
65536;DHT22;52145;49.342;9.116;2023-04-03T17:49:24;7.20;86.40
65536;DHT22;52145;49.342;9.116;2023-04-03T17:51:50;7.10;89.40
65536;DHT22;52145;49.342;9.116;2023-04-03T17:54:15;7.10;89.00
65536;DHT22;52145;49.342;9.116;2023-04-03T17:56:41;7.00;88.20
65536;DHT22;52145;49.342;9.116;2023-04-03T17:59:15;6.90;89.50
65536;DHT22;52145;49.342;9.116;2023-04-03T18:01:42;6.90;89.50
65536;DHT22;52145;49.342;9.116;2023-04-03T18:04:08;6.80;88.80
65536;DHT22;52145;49.342;9.116;2023-04-03T18:06:43;6.80;90.00
65536;DHT22;52145;49.342;9.116;2023-04-03T18:09:19;6.60;90.00
65536;DHT22;52145;49.342;9.116;2023-04-03T18:11:47;6.60;90.20
65536;DHT22;52145;49.342;9.116;2023-04-03T18:14:17;6.50;90.40
65536;DHT22;52145;49.342;9.116;2023-04-03T18:16:43;6.50;90.80
65536;DHT22;52145;49.342;9.116;2023-04-03T18:19:08;6.40;91.10
65536;DHT22;52145;49.342;9.116;2023-04-03T18:21:35;6.30;90.70
65536;DHT22;52145;49.342;9.116;2023-04-03T18:24:01;6.30;91.40
65536;DHT22;52145;49.342;9.116;2023-04-03T18:26:28;6.20;91.20
65536;DHT22;52145;49.342;9.116;2023-04-03T18:29:00;6.00;91.50
65536;DHT22;52145;49.342;9.116;2023-04-03T18:31:27;5.90;91.60
65536;DHT22;52145;49.342;9.116;2023-04-03T18:33:55;6.00;91.80
65536;DHT22;52145;49.342;9.116;2023-04-03T18:36:26;5.90;91.60
65536;DHT22;52145;49.342;9.116;2023-04-03T18:38:53;6.00;92.20
65536;DHT22;52145;49.342;9.116;2023-04-03T18:41:22;5.80;92.30
65536;DHT22;52145;49.342;9.116;2023-04-03T18:43:50;5.70;92.60
65536;DHT22;52145;49.342;9.116;2023-04-03T18:46:16;5.70;92.90
65536;DHT22;52145;49.342;9.116;2023-04-03T18:48:43;5.70;92.80
65536;DHT22;52145;49.342;9.116;2023-04-03T18:51:10;5.80;93.00
65536;DHT22;52145;49.342;9.116;2023-04-03T18:53:37;5.70;92.70
65536;DHT22;52145;49.342;9.116;2023-04-03T18:56:03;5.60;92.70
65536;DHT22;52145;49.342;9.116;2023-04-03T18:58:28;5.60;92.90
65536;DHT22;52145;49.342;9.116;2023-04-03T19:00:54;5.50;93.30
65536;DHT22;52145;49.342;9.116;2023-04-03T19:03:20;5.50;93.20
65536;DHT22;52145;49.342;9.116;2023-04-03T19:05:45;5.40;93.10
65536;DHT22;52145;49.342;9.116;2023-04-03T19:08:11;5.40;93.00
65536;DHT22;52145;49.342;9.116;2023-04-03T19:10:37;5.30;93.30
65536;DHT22;52145;49.342;9.116;2023-04-03T19:13:03;5.30;93.50
65536;DHT22;52145;49.342;9.116;2023-04-03T19:15:29;5.20;93.60
65536;DHT22;52145;49.342;9.116;2023-04-03T19:17:54;5.30;93.70
65536;DHT22;52145;49.342;9.116;2023-04-03T19:20:20;5.10;94.00
65536;DHT22;52145;49.342;9.116;2023-04-03T19:22:45;5.10;94.00
65536;DHT22;52145;49.342;9.116;2023-04-03T19:25:11;5.00;94.80
65536;DHT22;52145;49.342;9.116;2023-04-03T19:27:38;5.00;94.40
65536;DHT22;52145;49.342;9.116;2023-04-03T19:30:05;5.00;94.70
65536;DHT22;52145;49.342;9.116;2023-04-03T19:32:31;5.00;94.80
65536;DHT22;52145;49.342;9.116;2023-04-03T19:34:57;4.90;95.00
65536;DHT22;52145;49.342;9.116;2023-04-03T19:37:23;5.00;94.90
65536;DHT22;52145;49.342;9.116;2023-04-03T19:39:50;4.90;94.90
65536;DHT22;52145;49.342;9.116;2023-04-03T19:42:16;4.80;95.10
65536;DHT22;52145;49.342;9.116;2023-04-03T19:44:43;4.90;95.40
65536;DHT22;52145;49.342;9.116;2023-04-03T19:47:09;4.80;95.20
65536;DHT22;52145;49.342;9.116;2023-04-03T19:49:36;4.80;95.70
65536;DHT22;52145;49.342;9.116;2023-04-03T19:52:02;4.70;95.30
65536;DHT22;52145;49.342;9.116;2023-04-03T19:54:27;4.70;95.70
65536;DHT22;52145;49.342;9.116;2023-04-03T19:56:53;4.60;95.60
65536;DHT22;52145;49.342;9.116;2023-04-03T19:59:18;4.70;95.20
65536;DHT22;52145;49.342;9.116;2023-04-03T20:01:44;4.60;95.40
65536;DHT22;52145;49.342;9.116;2023-04-03T20:04:12;4.70;99.90
65536;DHT22;52145;49.342;9.116;2023-04-03T20:06:37;5.00;96.10
65536;DHT22;52145;49.342;9.116;2023-04-03T20:09:03;4.80;96.20
65536;DHT22;52145;49.342;9.116;2023-04-03T20:11:29;4.70;96.30
65536;DHT22;52145;49.342;9.116;2023-04-03T20:13:55;4.60;96.40
65536;DHT22;52145;49.342;9.116;2023-04-03T20:16:21;4.60;96.40
65536;DHT22;52145;49.342;9.116;2023-04-03T20:18:50;4.50;96.20
65536;DHT22;52145;49.342;9.116;2023-04-03T20:21:16;4.50;96.60
65536;DHT22;52145;49.342;9.116;2023-04-03T20:23:43;4.40;96.90
65536;DHT22;52145;49.342;9.116;2023-04-03T20:26:15;4.40;96.60
65536;DHT22;52145;49.342;9.116;2023-04-03T20:28:43;4.30;97.10
65536;DHT22;52145;49.342;9.116;2023-04-03T20:31:09;4.30;96.90
65536;DHT22;52145;49.342;9.116;2023-04-03T20:33:36;4.30;96.90
65536;DHT22;52145;49.342;9.116;2023-04-03T20:36:02;4.30;97.20
65536;DHT22;52145;49.342;9.116;2023-04-03T20:38:28;4.20;96.80
65536;DHT22;52145;49.342;9.116;2023-04-03T20:40:54;4.20;96.90
65536;DHT22;52145;49.342;9.116;2023-04-03T20:43:19;4.20;96.80
65536;DHT22;52145;49.342;9.116;2023-04-03T20:45:47;4.20;96.90
65536;DHT22;52145;49.342;9.116;2023-04-03T20:48:13;4.10;97.00
65536;DHT22;52145;49.342;9.116;2023-04-03T20:50:39;4.00;97.00
65536;DHT22;52145;49.342;9.116;2023-04-03T20:53:05;4.00;97.10
65536;DHT22;52145;49.342;9.116;2023-04-03T20:55:31;4.00;97.10
65536;DHT22;52145;49.342;9.116;2023-04-03T20:57:58;4.00;97.00
65536;DHT22;52145;49.342;9.116;2023-04-03T21:00:26;4.00;97.30
65536;DHT22;52145;49.342;9.116;2023-04-03T21:02:51;3.90;97.50
65536;DHT22;52145;49.342;9.116;2023-04-03T21:05:21;3.80;97.40
65536;DHT22;52145;49.342;9.116;2023-04-03T21:19:29;3.60;98.00
65536;DHT22;52145;49.342;9.116;2023-04-03T21:21:59;3.50;98.00
65536;DHT22;52145;49.342;9.116;2023-04-03T21:24:25;3.50;98.00
65536;DHT22;52145;49.342;9.116;2023-04-03T21:26:50;3.50;98.10
65536;DHT22;52145;49.342;9.116;2023-04-03T21:29:16;3.40;98.40
65536;DHT22;52145;49.342;9.116;2023-04-03T21:31:58;3.40;98.20
65536;DHT22;52145;49.342;9.116;2023-04-03T21:34:28;3.40;98.30
65536;DHT22;52145;49.342;9.116;2023-04-03T21:36:55;3.40;98.20
65536;DHT22;52145;49.342;9.116;2023-04-03T21:39:21;3.40;98.30
65536;DHT22;52145;49.342;9.116;2023-04-03T21:41:50;3.40;98.30
65536;DHT22;52145;49.342;9.116;2023-04-03T21:44:19;3.30;98.20
65536;DHT22;52145;49.342;9.116;2023-04-03T21:46:45;3.30;98.40
65536;DHT22;52145;49.342;9.116;2023-04-03T21:49:12;3.20;98.30
65536;DHT22;52145;49.342;9.116;2023-04-03T21:51:38;3.20;98.60
65536;DHT22;52145;49.342;9.116;2023-04-03T21:54:04;3.10;98.70
65536;DHT22;52145;49.342;9.116;2023-04-03T21:56:29;3.10;98.90
65536;DHT22;52145;49.342;9.116;2023-04-03T21:58:55;3.10;98.80
65536;DHT22;52145;49.342;9.116;2023-04-03T22:01:21;3.10;98.90
65536;DHT22;52145;49.342;9.116;2023-04-03T22:03:47;3.10;98.80
65536;DHT22;52145;49.342;9.116;2023-04-03T22:06:14;3.10;98.70
65536;DHT22;52145;49.342;9.116;2023-04-03T22:08:40;3.10;98.70
65536;DHT22;52145;49.342;9.116;2023-04-03T22:11:08;3.00;98.80
65536;DHT22;52145;49.342;9.116;2023-04-03T22:13:34;3.00;98.80
65536;DHT22;52145;49.342;9.116;2023-04-03T22:16:00;3.00;99.00
65536;DHT22;52145;49.342;9.116;2023-04-03T22:18:27;3.00;98.80
65536;DHT22;52145;49.342;9.116;2023-04-03T22:20:52;3.00;98.90
65536;DHT22;52145;49.342;9.116;2023-04-03T22:23:19;2.90;98.80
65536;DHT22;52145;49.342;9.116;2023-04-03T22:26:05;2.90;99.00
65536;DHT22;52145;49.342;9.116;2023-04-03T22:28:39;2.90;99.10
65536;DHT22;52145;49.342;9.116;2023-04-03T22:31:06;2.80;99.00
65536;DHT22;52145;49.342;9.116;2023-04-03T22:33:32;2.80;98.90
65536;DHT22;52145;49.342;9.116;2023-04-03T22:36:00;2.80;98.90
65536;DHT22;52145;49.342;9.116;2023-04-03T22:38:26;2.80;98.80
65536;DHT22;52145;49.342;9.116;2023-04-03T22:40:58;2.80;99.10
65536;DHT22;52145;49.342;9.116;2023-04-03T22:43:25;2.80;99.00
65536;DHT22;52145;49.342;9.116;2023-04-03T22:45:52;2.70;98.90
65536;DHT22;52145;49.342;9.116;2023-04-03T22:48:18;2.70;99.10
65536;DHT22;52145;49.342;9.116;2023-04-03T22:50:43;2.70;99.00
65536;DHT22;52145;49.342;9.116;2023-04-03T22:53:09;2.70;99.20
65536;DHT22;52145;49.342;9.116;2023-04-03T22:55:35;2.60;99.20
65536;DHT22;52145;49.342;9.116;2023-04-03T22:58:02;2.60;99.50
65536;DHT22;52145;49.342;9.116;2023-04-03T23:00:27;2.50;99.30
65536;DHT22;52145;49.342;9.116;2023-04-03T23:02:53;2.50;99.50
65536;DHT22;52145;49.342;9.116;2023-04-03T23:05:19;2.40;99.60
65536;DHT22;52145;49.342;9.116;2023-04-03T23:07:45;2.40;99.80
65536;DHT22;52145;49.342;9.116;2023-04-03T23:10:10;2.30;99.80
65536;DHT22;52145;49.342;9.116;2023-04-03T23:12:37;2.30;99.90
65536;DHT22;52145;49.342;9.116;2023-04-03T23:15:06;2.20;99.90
65536;DHT22;52145;49.342;9.116;2023-04-03T23:17:35;2.20;99.70
65536;DHT22;52145;49.342;9.116;2023-04-03T23:20:01;2.20;99.90
65536;DHT22;52145;49.342;9.116;2023-04-03T23:22:26;2.20;99.90
65536;DHT22;52145;49.342;9.116;2023-04-03T23:24:52;2.20;99.90
65536;DHT22;52145;49.342;9.116;2023-04-03T23:27:18;2.20;99.80
65536;DHT22;52145;49.342;9.116;2023-04-03T23:29:43;2.20;99.90
65536;DHT22;52145;49.342;9.116;2023-04-03T23:32:09;2.20;99.90
65536;DHT22;52145;49.342;9.116;2023-04-03T23:34:35;2.20;99.90
65536;DHT22;52145;49.342;9.116;2023-04-03T23:37:01;2.10;99.90
65536;DHT22;52145;49.342;9.116;2023-04-03T23:39:26;2.10;99.90
65536;DHT22;52145;49.342;9.116;2023-04-03T23:41:52;2.00;99.90
65536;DHT22;52145;49.342;9.116;2023-04-03T23:44:19;2.00;99.90
65536;DHT22;52145;49.342;9.116;2023-04-03T23:46:44;2.00;99.90
65536;DHT22;52145;49.342;9.116;2023-04-03T23:49:10;1.90;99.90
65536;DHT22;52145;49.342;9.116;2023-04-03T23:51:35;1.90;99.90
65536;DHT22;52145;49.342;9.116;2023-04-03T23:54:01;1.80;99.90
65536;DHT22;52145;49.342;9.116;2023-04-03T23:56:26;1.80;99.90
65536;DHT22;52145;49.342;9.116;2023-04-03T23:58:52;1.80;99.90
